Terminal Aerodrome Forecast
Issued by NWS Charleston, WV

Current Version | Previous Version | Graphics & Text | Print | Product List | Glossary On
Versions: 1 2 3 4 5 6 7 8 9 10 11 12 13 14 15 16 17 18 19 20 21 22 23 24 25 26
515
FTUS41 KRLX 180849 AAA
TAFEKN
TAF AMD
KEKN 180849Z 1809/1906 00000KT 3SM BR SCT002 SCT060
     FM181000 00000KT P6SM BKN060
      TEMPO 1810/1812 5SM SHRA OVC035
     FM181200 VRB03KT 6SM SHRA SCT015 BKN035
      TEMPO 1812/1816 3SM TSRA OVC015CB
     FM181600 24005KT 6SM SHRA VCTS BKN025CB
     FM181900 26008KT P6SM SHRA VCTS BKN040CB
     FM190000 27006KT P6SM SCT060=

USA.gov is the U.S. government's official web portal to all federal, state and local government web resources and services.